San Diego, CA

4:05 PM PST on February 06, 2016 (GMT -0800)
North Island Naval Air Station | | Change Station
CLOSE
Current Station
Airport
Location: North Island,
Elevation: 23 ft
Nearby Weather Stations

Elev 23 ft 32.69 °N, 117.21 °W | Updated 13 minutes ago

Partly Cloudy
Partly Cloudy
67 °F
Feels Like 67 °F
N
15
Wind Variable Wind from NNW

Today
High -- | Low -- °F
--% Chance of Precip.
Yesterday
High -- | Low -- °F
Precip. -- in
Pressure 30.12 in
Visibility 10.0 miles
Clouds Few 25000 ft
Dew Point 32 °F
Humidity 27%
Rainfall 0.00 in
Snow Depth Not available.
6:40 AM 5:26 PM
Waning Crescent, 3% visible
METAR KNZY 062352Z 33013KT 10SM FEW250 19/00 A3012 RMK AO2 SLP199 T01940000 10222 20189 56016 $
Pressure 30.12 in
Visibility 10.0 miles
Clouds Few 25000 ft
Dew Point 32 °F
Humidity 27%
Rainfall 0.00 in
Snow Depth Not available.
6:40 AM 5:26 PM
Waning Crescent, 3% visible
METAR KNZY 062352Z 33013KT 10SM FEW250 19/00 A3012 RMK AO2 SLP199 T01940000 10222 20189 56016 $

10-Day Weather Forecast

Almanac

Astronomy

Feb. 06, 2016 Rise Set
Actual Time
Civil Twilight
Nautical Twilight
Astronomical Twilight
Moon
Length of Visible Light
Length of Day
Tomorrow will be .
, % of the Moon is Illuminated

Today's Extremes

State Highs State Lows

Community

WunderPhotos

Upload Photos

1,891,105 photos uploaded!

WunderBlog® & News

Nearby

Air Quality

  Air Quality AQ Index Pollutant
Not available.

Snow Depth

Station Depth Elevation

Earthquake Activity

City Distance Mag. Time & Date
Minimum magnitude displayed is 2.5.

Coastal Water Temperatures

Place Temperature

Stations

Nearby Weather Stations

Station Location Temp. Windchill Dew Point Humidity Wind Precip. Elev Updated Type
                   

Watches & Warnings

There are currently no watches in effect.